Saugatuck, Connecticut
Current Conditions -  °F | °C
As of 1:40 PM on Wednesday 26 Nov 2014 (Local Time) from KBDR Reporting Station
Moderate Rain Moderate Rain  
Wind Chill: 26°   Ceiling: 600
Heat Index: 35°   Visibility: 2.5mi
Dew Point: 33°   Wind: 15mph
Humidity: 92%   Direction: 360°N
Pressure: 29.99"   Gusts: NA
Location:  41.1454°N, 73.3462°W
Report Text: KBDR 261840Z 36013KT 2 1/2SM RA BR BKN006 BKN012 OVC023 02/01 A2999 RMK AO2 P0011 I1000 T00170006
Loading
Personal Weather Stations






























Interactive Weather Map New forecast layout! Learn more

10-Day Weather Forecast

Advertisements
Track Severe Weather on mobile